Cuttingsville, Vermont
Current Conditions -  °F | °C
As of 6:35 AM on Friday 24 Oct 2014 (Local Time) from KRUT Reporting Station
Overcast Overcast  
Wind Chill: 35°   Ceiling: 500
Heat Index: 41°   Visibility: 5mi
Dew Point: 39°   Wind: 10mph
Humidity: 93%   Direction: 320°NW
Pressure: 29.81"   Gusts: NA
Location:  43.49°N, 72.88°W
Report Text: KRUT 241035Z 32009KT 5SM OVC005 05/04 A2981 RMK AO1
Loading
Personal Weather Stations






























Interactive Weather Map New forecast layout! Learn more

10-Day Weather Forecast

Advertisements
Track Severe Weather on mobile